Latest Weather Observations for Naracoorte

IDS60801

Issued at 7:51 am CDT Wednesday 23 October 2019 (issued every 10 minutes, with the page automatically refreshed every 10 minutes)

About weather observations | Map of weather stations | Latest weather observations for SA | Other Formats
Station Details ID: 026099 Name: NARACOORTE AERODROME Lat: -36.98 Lon: 140.73 Height: 49.72 m
Data from the previous 72 hours. | See also: Recent months at Naracoorte
Date/Time
CDT
Temp
°C
App
Temp
°C
Dew
Point
°C
Rel
Hum
%
Delta-T
°C
Wind Press
QNH
hPa
Press
MSL
hPa
Rain since
9am
mm
Dir  Spd
km/h
Gust
km/h
Spd
kts
Gust
kts
23/07:30am 15.2 12.0 4.9 50 4.8 NNE 11 17 6 9 1020.4 1020.4 0.0
23/07:00am 13.9 10.2 4.5 53 4.3 NE 13 19 7 10 1020.2 1020.2 0.0
23/06:30am 13.0 9.3 4.4 56 3.9 NE 13 17 7 9 1020.0 1020.0 0.0
23/06:00am 12.6 8.6 4.8 59 3.6 NE 15 20 8 11 1019.6 1019.6 0.0
23/05:30am 13.3 8.6 5.2 58 3.8 NE 19 22 10 12 1019.5 1019.5 0.0
23/05:00am 13.0 10.3 5.7 61 3.4 NE 9 13 5 7 1019.6 1019.6 0.0
23/04:30am 11.7 8.3 4.2 60 3.4 NNE 11 17 6 9 1019.6 1019.6 0.0
23/04:00am 13.1 9.7 6.0 62 3.4 NE 13 17 7 9 1019.6 1019.6 0.0
23/03:30am 12.8 10.0 6.8 67 2.9 NE 11 13 6 7 1019.6 1019.6 0.0
23/03:00am 12.6 9.9 7.3 70 2.6 NE 11 15 6 8 1019.7 1019.7 0.0
23/02:30am 12.7 10.4 7.6 71 2.5 NE 9 13 5 7 1019.8 1019.8 0.0
23/02:00am 13.6 13.0 7.6 67 3.0 CALM 0 0 0 0 1020.1 1020.1 0.0
23/01:30am 13.7 12.8 7.7 67 3.0 E 2 7 1 4 1020.4 1020.4 0.0
23/01:00am 13.4 12.6 8.3 71 2.5 E 2 7 1 4 1020.7 1020.7 0.0
23/12:30am 12.5 10.9 8.6 77 1.9 E 7 9 4 5 1020.9 1020.9 0.0
23/12:00am 11.8 10.0 8.1 78 1.8 ESE 7 9 4 5 1021.3 1021.3 0.0
 
Date/Time
CDT
Temp
°C
App
Temp
°C
Dew
Point
°C
Rel
Hum
%
Delta-T
°C
Wind Press
QNH
hPa
Press
MSL
hPa
Rain since
9am
mm
Dir  Spd
km/h
Gust
km/h
Spd
kts
Gust
kts
22/11:30pm 11.8 9.7 8.3 79 1.7 SE 9 11 5 6 1021.5 1021.5 0.0
22/11:00pm 11.6 9.2 8.5 81 1.5 SE 11 15 6 8 1021.8 1021.8 0.0
22/10:30pm 11.7 10.3 9.6 87 1.1 SE 7 11 4 6 1021.9 1021.9 0.0
22/10:00pm 12.7 10.0 10.2 85 1.3 SSE 15 17 8 9 1021.9 1021.9 0.0
22/09:30pm 14.9 12.4 12.2 84 1.5 SSE 17 22 9 12 1021.8 1021.8 0.0
22/09:00pm 12.8 10.9 9.1 78 1.9 SE 9 11 5 6 1021.8 1021.8 0.0
22/08:30pm 14.8 14.1 10.0 73 2.5 S 4 11 2 6 1021.5 1021.5 0.0
22/08:00pm 16.7 16.9 10.5 67 3.3 CALM 0 6 0 3 1021.2 1021.2 0.0
22/07:30pm 19.2 17.9 11.3 60 4.3 S 9 11 5 6 1021.1 1021.1 0.0
22/07:00pm 22.8 21.0 9.6 43 7.2 S 9 11 5 6 1021.0 1021.0 0.0
22/06:30pm 25.6 24.5 5.2 27 10.4 CALM 0 0 0 0 1021.0 1021.0 0.0
22/06:00pm 26.3 23.7 0.9 19 12.0 SSE 4 9 2 5 1021.0 1021.0 0.0
22/05:30pm 26.8 24.0 2.0 20 12.0 WSW 6 9 3 5 1021.1 1021.1 0.0
22/05:00pm 27.0 24.1 1.4 19 12.3 SW 6 15 3 8 1021.1 1021.1 0.0
22/04:30pm 26.9 23.5 2.1 20 12.0 W 9 15 5 8 1021.3 1021.3 0.0
22/04:00pm 26.4 23.1 2.3 21 11.7 NNW 9 15 5 8 1021.5 1021.5 0.0
22/03:30pm 27.0 23.8 0.7 18 12.4 WNW 7 13 4 7 1021.6 1021.6 0.0
22/03:00pm 27.0 23.9 1.4 19 12.2 SSE 7 13 4 7 1021.9 1021.9 0.0
22/02:30pm 26.4 23.5 1.7 20 11.8 SSW 6 13 3 7 1022.4 1022.4 0.0
22/02:00pm 26.5 23.9 3.1 22 11.5 WSW 6 13 3 7 1022.9 1022.9 0.0
22/01:30pm 25.2 21.9 2.6 23 10.9 NW 9 17 5 9 1023.1 1023.1 0.0
22/01:00pm 25.0 22.4 3.0 24 10.7 WNW 6 13 3 7 1023.5 1023.5 0.0
22/12:30pm 24.7 22.2 6.4 31 9.4 NW 9 15 5 8 1023.9 1023.9 0.0
22/12:00pm 23.3 21.8 8.6 39 7.8 E 6 11 3 6 1024.3 1024.3 0.0
22/11:30am 22.8 21.2 7.8 38 7.8 NE 6 11 3 6 1024.7 1024.7 0.0
22/11:00am 21.3 19.3 8.6 44 6.7 N 9 13 5 7 1025.1 1025.1 0.0
22/10:30am 20.5 18.9 10.3 52 5.5 NNE 9 13 5 7 1025.2 1025.2 0.0
22/10:00am 19.6 18.3 11.1 58 4.7 NE 9 13 5 7 1025.5 1025.5 0.0
22/09:30am 17.8 16.7 11.8 68 3.3 NE 9 11 5 6 1025.7 1025.7 0.0
22/09:00am 15.7 14.4 11.1 74 2.5 ENE 9 11 5 6 1025.7 1025.7 0.0
22/08:30am 13.6 12.6 11.0 84 1.4 NE 7 9 4 5 1025.5 1025.5 0.0
22/08:00am 11.2 9.1 9.8 91 0.7 ENE 11 17 6 9 1025.4 1025.4 0.0
22/07:30am 9.7 7.1 9.2 97 0.2 NE 13 15 7 8 1025.3 1025.3 0.0
22/07:19am 9.0 7.4 8.6 97 0.2 NE 7 13 4 7 1025.2 1025.2 0.0
22/07:00am 4.0 1.3 3.6 97 0.2 NE 7 9 4 5 1025.1 1025.1 0.0
22/06:30am 2.5 0.8 2.1 97 0.2 CALM 0 0 0 0 1024.8 1024.8 0.0
22/06:00am 1.5 -0.3 1.1 97 0.1 CALM 0 0 0 0 1024.5 1024.5 0.0
22/05:30am 2.1 0.4 1.7 97 0.2 CALM 0 6 0 3 1024.3 1024.3 0.0
22/05:00am 2.5 -0.5 2.1 97 0.2 SSE 7 9 4 5 1024.4 1024.4 0.0
22/04:30am 2.9 -1.2 2.5 97 0.2 S 13 15 7 8 1024.4 1024.4 0.0
22/04:00am 2.6 -1.2 2.0 96 0.2 SSE 11 13 6 7 1024.3 1024.3 0.0
22/03:30am 3.1 -1.0 2.5 96 0.2 SSE 13 15 7 8 1024.4 1024.4 0.0
22/03:00am 3.5 1.2 2.8 95 0.3 SSE 4 7 2 4 1024.3 1024.3 0.0
22/02:30am 4.0 0.5 3.3 95 0.3 SSE 11 13 6 7 1024.5 1024.5 0.0
22/02:00am 4.5 3.1 3.8 95 0.3 CALM 0 0 0 0 1024.7 1024.7 0.0
22/01:30am 4.7 2.2 4.0 95 0.3 SE 6 7 3 4 1025.1 1025.1 0.0
22/01:00am 5.7 1.7 5.0 95 0.3 S 15 17 8 9 1025.4 1025.4 0.0
22/12:30am 5.8 2.6 4.9 94 0.4 SSE 11 13 6 7 1025.5 1025.5 0.0
22/12:00am 6.1 3.3 5.2 94 0.4 SSE 9 13 5 7 1025.6 1025.6 0.0
 
Date/Time
CDT
Temp
°C
App
Temp
°C
Dew
Point
°C
Rel
Hum
%
Delta-T
°C
Wind Press
QNH
hPa
Press
MSL
hPa
Rain since
9am
mm
Dir  Spd
km/h
Gust
km/h
Spd
kts
Gust
kts
21/11:30pm 6.9 3.5 5.8 93 0.5 S 13 15 7 8 1025.9 1025.9 0.0
21/11:00pm 7.3 4.3 6.2 93 0.5 SSE 11 13 6 7 1026.0 1026.0 0.0
21/10:30pm 8.4 5.3 7.3 93 0.5 S 13 17 7 9 1026.2 1026.2 0.0
21/10:00pm 9.1 6.8 7.5 90 0.8 SSE 9 11 5 6 1026.2 1026.2 0.0
21/09:30pm 11.0 7.6 9.1 88 0.9 SSE 17 19 9 10 1026.2 1026.2 0.0
21/09:00pm 11.4 9.9 8.3 81 1.5 SE 6 7 3 4 1026.1 1026.1 0.0
21/08:30pm 11.3 9.6 8.3 82 1.5 SE 7 9 4 5 1025.9 1025.9 0.0
21/08:00pm 12.3 9.6 8.8 79 1.8 S 13 15 7 8 1025.8 1025.8 0.0
21/07:30pm 15.3 13.5 9.4 68 3.0 S 9 11 5 6 1025.7 1025.7 0.0
21/07:00pm 17.5 15.8 9.9 61 4.0 S 9 11 5 6 1025.7 1025.7 0.0
21/06:30pm 18.9 16.1 9.9 56 4.8 S 15 19 8 10 1025.7 1025.7 0.0
21/06:00pm 19.8 16.8 9.1 50 5.6 SSE 15 20 8 11 1025.7 1025.7 0.0
21/05:30pm 20.2 17.8 10.0 52 5.5 S 13 19 7 10 1025.6 1025.6 0.0
21/05:00pm 20.9 18.8 11.0 53 5.4 S 13 20 7 11 1025.7 1025.7 0.0
21/04:30pm 20.7 17.9 8.7 46 6.3 SSE 13 20 7 11 1025.7 1025.7 0.0
21/04:00pm 21.0 18.6 9.9 49 6.0 S 13 20 7 11 1025.9 1025.9 0.0
21/03:30pm 20.6 18.1 9.8 50 5.8 SSW 13 20 7 11 1026.0 1026.0 0.0
21/03:00pm 20.7 18.5 9.3 48 6.0 SSE 11 20 6 11 1026.5 1026.5 0.0
21/02:30pm 20.4 18.2 9.3 49 5.9 S 11 20 6 11 1027.1 1027.1 0.0
21/02:00pm 19.2 16.3 8.2 49 5.7 SSW 13 19 7 10 1027.5 1027.5 0.0
21/01:30pm 18.6 16.1 8.0 50 5.4 S 11 17 6 9 1027.5 1027.5 0.0
21/01:00pm 18.1 16.5 8.7 54 4.9 SE 7 13 4 7 1027.8 1027.8 0.0
21/12:30pm 17.2 15.2 8.6 57 4.4 SE 9 15 5 8 1028.3 1028.3 0.0
21/12:00pm 16.5 14.9 8.0 57 4.3 ESE 6 13 3 7 1028.7 1028.7 0.0
21/11:30am 15.8 14.5 7.6 58 4.1 ESE 4 11 2 6 1029.2 1029.2 0.0
21/11:00am 15.8 13.8 8.5 62 3.7 ENE 9 17 5 9 1029.3 1029.3 0.0
21/10:30am 14.0 12.2 7.3 64 3.3 SSE 6 13 3 7 1029.6 1029.6 0.0
21/10:00am 13.3 11.4 6.9 65 3.1 SSE 6 11 3 6 1029.7 1029.7 0.0
21/09:30am 13.2 11.3 7.4 68 2.8 SE 7 13 4 7 1030.0 1030.0 0.0
21/09:00am 12.4 10.9 6.9 69 2.6 E 4 9 2 5 1030.1 1030.1 0.0
21/08:30am 11.6 10.7 7.7 77 1.9 ESE 2 7 1 4 1030.1 1030.1 0.0
21/08:00am 8.8 8.2 7.6 92 0.6 CALM 0 0 0 0 1029.8 1029.8 0.0
21/07:30am 6.4 5.4 5.5 94 0.4 CALM 0 0 0 0 1029.6 1029.6 0.0
21/07:00am 3.9 2.4 3.0 94 0.4 CALM 0 0 0 0 1029.3 1029.3 0.0
21/06:30am 4.0 2.5 3.1 94 0.4 CALM 0 0 0 0 1028.9 1028.9 0.0
21/06:00am 3.4 1.8 2.2 92 0.5 CALM 0 0 0 0 1028.3 1028.3 0.0
21/05:30am 4.7 2.5 3.4 91 0.5 ENE 4 6 2 3 1028.1 1028.1 0.0
21/05:00am 5.3 2.3 4.1 92 0.5 E 9 11 5 6 1027.7 1027.7 0.0
21/04:30am 6.2 3.3 4.7 90 0.6 E 9 9 5 5 1028.0 1028.0 0.0
21/04:00am 6.5 3.6 4.7 88 0.8 ESE 9 11 5 6 1028.2 1028.2 0.0
21/03:30am 7.9 5.6 5.5 85 1.1 SSE 7 11 4 6 1028.7 1028.7 0.0
21/03:00am 9.0 7.7 6.1 82 1.3 SSE 2 6 1 3 1028.7 1028.7 0.0
21/02:30am 8.9 8.0 6.2 83 1.2 CALM 0 0 0 0 1028.9 1028.9 0.0
21/02:00am 8.9 6.9 6.2 83 1.2 SSE 6 9 3 5 1029.2 1029.2 0.0
21/01:30am 9.1 8.2 6.0 81 1.4 CALM 0 0 0 0 1029.5 1029.5 0.0
21/01:00am 9.6 7.7 6.5 81 1.4 S 6 7 3 4 1029.8 1029.8 0.0
21/12:30am 9.1 7.1 6.9 86 1.0 SSE 7 9 4 5 1030.1 1030.1 0.0
21/12:00am 9.1 7.1 6.9 86 1.0 SSE 7 9 4 5 1030.0 1030.0 0.0
 
Date/Time
CDT
Temp
°C
App
Temp
°C
Dew
Point
°C
Rel
Hum
%
Delta-T
°C
Wind Press
QNH
hPa
Press
MSL
hPa
Rain since
9am
mm
Dir  Spd
km/h
Gust
km/h
Spd
kts
Gust
kts
20/11:30pm 9.2 6.7 6.6 84 1.2 SSE 9 13 5 7 1029.9 1029.9 0.0
20/11:00pm 9.6 6.8 6.9 83 1.3 SSE 11 13 6 7 1029.9 1029.9 0.0
20/10:30pm 9.9 7.5 7.0 82 1.4 SSE 9 13 5 7 1030.0 1030.0 0.0
20/10:00pm 9.8 7.4 7.2 84 1.2 SSE 9 11 5 6 1030.0 1030.0 0.0
20/09:30pm 8.8 6.6 6.1 83 1.2 S 7 11 4 6 1029.8 1029.8 0.0
20/09:00pm 9.0 6.0 5.9 81 1.4 S 11 15 6 8 1029.6 1029.6 0.0
20/08:30pm 9.6 6.6 6.1 79 1.6 SSW 11 15 6 8 1029.5 1029.5 0.0
20/08:00pm 11.0 7.7 6.4 73 2.2 SSW 13 17 7 9 1029.3 1029.3 0.0
20/07:30pm 11.9 7.8 6.0 67 2.7 SSW 17 24 9 13 1029.1 1029.1 0.0
20/07:00pm 12.9 8.4 6.0 63 3.3 SSW 19 24 10 13 1028.9 1028.9 0.0
20/06:30pm 13.7 9.1 6.3 61 3.5 SSW 20 26 11 14 1028.7 1028.7 0.0
20/06:00pm 14.2 9.2 6.6 60 3.7 SSW 22 30 12 16 1028.5 1028.5 0.0
20/05:30pm 14.5 9.2 6.8 60 3.7 SSW 24 30 13 16 1028.3 1028.3 0.0
20/05:00pm 14.9 10.5 7.5 61 3.7 S 20 26 11 14 1028.1 1028.1 0.0
20/04:30pm 14.9 9.6 7.0 59 3.8 SSW 24 30 13 16 1028.0 1028.0 0.0
20/04:00pm 15.4 10.2 7.4 59 4.0 SW 24 30 13 16 1027.8 1027.8 0.0
20/03:30pm 16.4 11.3 7.6 56 4.4 SW 24 33 13 18 1027.6 1027.6 0.0
20/03:00pm 16.6 11.3 6.7 52 4.9 SW 24 33 13 18 1027.5 1027.5 0.0
20/02:30pm 17.0 12.1 6.8 51 5.0 SSW 22 32 12 17 1027.7 1027.7 0.0
20/02:00pm 16.3 11.8 7.0 54 4.6 SW 20 30 11 16 1027.8 1027.8 0.0
20/01:30pm 16.7 12.2 7.1 53 4.7 WSW 20 32 11 17 1027.7 1027.7 0.0
20/01:00pm 15.9 11.3 6.3 53 4.7 SW 20 28 11 15 1027.7 1027.7 0.0
20/12:30pm 15.6 11.1 6.1 53 4.6 WSW 19 28 10 15 1027.9 1027.9 0.0
20/12:00pm 15.7 11.0 6.2 53 4.6 WSW 20 32 11 17 1028.1 1028.1 0.0
20/11:30am 15.1 10.4 5.3 52 4.6 SW 19 28 10 15 1028.2 1028.2 0.0
20/11:00am 14.5 9.0 5.8 56 4.2 WSW 24 32 13 17 1028.3 1028.3 0.0
20/10:30am 13.3 8.7 6.6 64 3.2 WSW 20 28 11 15 1028.3 1028.3 0.0
20/10:00am 13.1 8.6 7.1 67 2.9 WSW 20 28 11 15 1028.2 1028.2 0.0
20/09:30am 13.2 8.6 8.1 71 2.5 W 22 32 12 17 1028.0 1028.0 0.0
20/09:00am 12.1 8.6 8.9 81 1.6 WNW 17 22 9 12 1027.8 1027.8 0.8
20/08:30am 10.9 8.6 9.0 88 0.9 NW 11 13 6 7 1027.6 1027.6 0.8
20/08:00am 9.5 7.3 7.9 90 0.8 NW 9 13 5 7 1027.4 1027.4 0.8

Other formats

Comma delimited format used in spreadsheet applications
http://www.bom.gov.au/fwo/IDS60801/IDS60801.94820.axf

JavaScript Object Notation format (JSON) in row-major order
http://www.bom.gov.au/fwo/IDS60801/IDS60801.94820.json

Data quality

Most of these data are generated automatically and are frequently updated. Quality checks on data are not normally performed. It is possible for incorrect values to appear. Refer to information at About Latest Weather Observations and please check the disclaimer before using these data.